createdAt,value
2019-03-04T00:02:43.652Z,99320.30
2019-03-04T00:06:49.459Z,99319.73
2019-03-04T00:10:55.324Z,99301.31
2019-03-04T00:15:00.769Z,99287.33
2019-03-04T00:19:06.307Z,99265.30
2019-03-04T00:23:11.809Z,99242.02
2019-03-04T00:27:17.463Z,99210.23
2019-03-04T00:31:22.916Z,99183.55
2019-03-04T00:35:28.663Z,99190.19
2019-03-04T00:39:34.042Z,99170.50
2019-03-04T00:43:39.262Z,99170.84
2019-03-04T00:47:44.711Z,99168.30
2019-03-04T00:51:50.333Z,99174.72
2019-03-04T00:55:55.773Z,99173.39
2019-03-04T01:00:01.121Z,99161.65
2019-03-04T01:04:06.591Z,99171.34
2019-03-04T01:08:12.115Z,99165.37
2019-03-04T01:12:18.122Z,99163.36
2019-03-04T01:16:23.526Z,99163.64
2019-03-04T01:20:28.808Z,99143.23
2019-03-04T01:24:34.201Z,99139.14
2019-03-04T01:28:39.976Z,99124.30
2019-03-04T01:32:45.398Z,99120.46
2019-03-04T01:36:50.861Z,99125.94
2019-03-04T01:40:56.307Z,99071.30
2019-03-04T01:45:01.707Z,99056.70
2019-03-04T01:49:07.157Z,99051.41
2019-03-04T01:53:12.690Z,99052.69
2019-03-04T01:57:18.068Z,99078.58
2019-03-04T02:01:23.872Z,99028.67
2019-03-04T02:05:32.079Z,99023.95
2019-03-04T02:09:37.892Z,98981.78
2019-03-04T02:13:43.256Z,98883.73
2019-03-04T02:17:49.141Z,98930.12
2019-03-04T02:21:54.910Z,98952.25
2019-03-04T02:26:24.135Z,98967.97
2019-03-04T02:30:30.298Z,98947.29
2019-03-04T02:34:35.690Z,98914.05
2019-03-04T02:38:41.040Z,98899.40
2019-03-04T02:42:46.580Z,98888.66
2019-03-04T02:46:51.944Z,98872.73
2019-03-04T02:50:57.295Z,98869.45
2019-03-04T02:55:02.756Z,98837.30
2019-03-04T02:59:08.244Z,98832.58
2019-03-04T03:03:13.688Z,98790.61
2019-03-04T03:07:19.143Z,98778.86
2019-03-04T03:11:24.423Z,98754.89
2019-03-04T03:15:29.864Z,98725.73
2019-03-04T03:19:35.209Z,98695.75
2019-03-04T03:23:41.052Z,98671.72
2019-03-04T03:27:46.379Z,98631.60
2019-03-04T03:31:59.483Z,98679.12
2019-03-04T03:36:04.858Z,98693.30
2019-03-04T03:40:12.352Z,98676.36
2019-03-04T03:44:17.910Z,98658.70
2019-03-04T03:48:23.770Z,98669.15
2019-03-04T03:52:29.135Z,98658.34
2019-03-04T03:56:34.622Z,98671.23
2019-03-04T04:00:40.068Z,98657.69
2019-03-04T04:04:45.440Z,98641.95
2019-03-04T04:08:50.868Z,98635.02
2019-03-04T04:12:56.322Z,98588.14
2019-03-04T04:17:02.215Z,98526.17
2019-03-04T04:21:07.627Z,98584.84
2019-03-04T04:25:13.071Z,98583.30
2019-03-04T04:29:18.789Z,98557.23
2019-03-04T04:33:24.359Z,98566.97
2019-03-04T04:37:30.114Z,98543.46
2019-03-04T04:41:35.846Z,98545.08
2019-03-04T04:45:41.382Z,98568.63
2019-03-04T04:49:47.174Z,98551.41
2019-03-04T04:53:56.609Z,98543.72
2019-03-04T04:58:02.505Z,98532.33
2019-03-04T05:02:08.014Z,98540.31
2019-03-04T05:06:13.461Z,98530.92
2019-03-04T05:10:19.887Z,98540.63
2019-03-04T05:14:25.244Z,98507.37
2019-03-04T05:18:30.730Z,98514.58
2019-03-04T05:22:35.990Z,98493.22
2019-03-04T05:26:41.378Z,98489.91
2019-03-04T05:30:46.725Z,98483.28
2019-03-04T05:34:52.173Z,98472.78
2019-03-04T05:38:57.648Z,98480.23
2019-03-04T05:43:03.226Z,98460.59
2019-03-04T05:47:08.970Z,98433.98
2019-03-04T05:51:14.331Z,98428.43
2019-03-04T05:55:19.893Z,98440.20
2019-03-04T05:59:25.340Z,98597.41
2019-03-04T06:03:30.698Z,98598.84
2019-03-04T06:07:40.033Z,98627.31
2019-03-04T06:11:45.819Z,98645.84
2019-03-04T06:15:51.296Z,98637.31
2019-03-04T06:19:56.797Z,98645.61
2019-03-04T06:24:02.747Z,98632.41
2019-03-04T06:28:08.299Z,98625.45
2019-03-04T06:32:14.067Z,98558.14
2019-03-04T06:36:19.812Z,98531.42
2019-03-04T06:40:25.300Z,98550.68
2019-03-04T06:44:30.837Z,98537.25
2019-03-04T06:48:36.244Z,98521.87
2019-03-04T06:52:42.201Z,98557.24
2019-03-04T06:56:57.601Z,98530.91
2019-03-04T07:01:21.441Z,98541.54
2019-03-04T07:05:53.992Z,98554.43
2019-03-04T07:09:59.493Z,98543.09
2019-03-04T07:14:05.358Z,98552.55
2019-03-04T07:18:10.775Z,98551.44
2019-03-04T07:22:16.410Z,98552.85
2019-03-04T07:26:21.940Z,98562.54
2019-03-04T07:30:27.390Z,98551.63
2019-03-04T07:34:33.946Z,98548.96
2019-03-04T07:38:59.987Z,98578.75
2019-03-04T07:43:05.801Z,98578.08
2019-03-04T07:47:12.301Z,98564.08
2019-03-04T07:51:18.664Z,98577.92
2019-03-04T07:55:23.983Z,98589.80
2019-03-04T07:59:29.536Z,98591.84
2019-03-04T08:03:34.985Z,98591.02
2019-03-04T08:07:49.903Z,98592.48
2019-03-04T08:12:47.600Z,98587.87
2019-03-04T08:16:53.063Z,98577.77
2019-03-04T08:20:58.613Z,98597.02
2019-03-04T08:25:04.175Z,98593.02
2019-03-04T08:29:09.875Z,98596.97
2019-03-04T08:33:15.378Z,98606.59
2019-03-04T08:37:20.826Z,98610.68
2019-03-04T08:41:26.842Z,98590.98
2019-03-04T08:45:32.810Z,98580.59
2019-03-04T08:49:38.333Z,98639.81
2019-03-04T08:53:44.242Z,98595.12
2019-03-04T08:57:49.843Z,98584.34
2019-03-04T09:01:55.424Z,98612.16
2019-03-04T09:06:00.787Z,98586.48
2019-03-04T09:10:13.806Z,98570.08
2019-03-04T09:14:19.622Z,98581.70
2019-03-04T09:18:25.586Z,98595.98
2019-03-04T09:22:31.087Z,98614.25
2019-03-04T09:26:36.658Z,98624.05
2019-03-04T09:30:42.514Z,98649.30
2019-03-04T09:34:48.424Z,98645.25
2019-03-04T09:38:54.274Z,98631.14
2019-03-04T09:43:00.356Z,98634.28
2019-03-04T09:47:06.145Z,98636.23
2019-03-04T09:51:11.589Z,98627.95
2019-03-04T09:55:17.502Z,98628.23
2019-03-04T09:59:22.932Z,98623.38
2019-03-04T10:04:18.633Z,98613.09
2019-03-04T10:08:46.049Z,98613.41
2019-03-04T10:14:03.875Z,98604.36
2019-03-04T10:18:49.543Z,98607.34
2019-03-04T10:23:32.808Z,98593.19
2019-03-04T10:28:12.908Z,98599.05
2019-03-04T10:33:23.391Z,98591.00
2019-03-04T10:38:49.220Z,98590.77
2019-03-04T10:43:42.407Z,98575.28
2019-03-04T10:47:47.828Z,98580.21
2019-03-04T10:51:53.354Z,98596.59
2019-03-04T10:55:58.855Z,98673.61
2019-03-04T11:00:06.939Z,98709.55
2019-03-04T11:04:12.528Z,98738.94
2019-03-04T11:08:18.499Z,98735.45
2019-03-04T11:12:24.466Z,98721.86
2019-03-04T11:16:29.962Z,98730.80
2019-03-04T11:20:35.621Z,98749.36
2019-03-04T11:24:41.598Z,98767.53
2019-03-04T11:28:47.109Z,98757.90
2019-03-04T11:32:52.567Z,98772.69
2019-03-04T11:37:01.222Z,98794.30
2019-03-04T11:41:07.775Z,98817.49
2019-03-04T11:45:16.247Z,98799.78
2019-03-04T11:49:31.704Z,98802.60
2019-03-04T11:53:37.195Z,98813.03
2019-03-04T11:57:42.632Z,98827.44
2019-03-04T12:01:49.776Z,98828.36
2019-03-04T12:05:55.492Z,98836.88
2019-03-04T12:10:00.829Z,98839.03
2019-03-04T12:14:06.409Z,98854.78
2019-03-04T12:18:11.828Z,98873.02
2019-03-04T12:22:17.645Z,98897.31
2019-03-04T12:26:23.170Z,98907.36
2019-03-04T12:30:30.983Z,98930.16
2019-03-04T12:34:36.885Z,98923.93
2019-03-04T12:38:42.422Z,98944.86
2019-03-04T12:42:47.887Z,98944.88
2019-03-04T12:46:53.422Z,98950.27
2019-03-04T12:50:59.771Z,98961.28
2019-03-04T12:55:06.581Z,98980.27
2019-03-04T12:59:12.059Z,98975.23
2019-03-04T13:03:24.268Z,98974.94
2019-03-04T13:07:29.730Z,98987.82
2019-03-04T13:11:38.452Z,99000.30
2019-03-04T13:15:56.022Z,99018.66
2019-03-04T13:20:02.181Z,99022.45
2019-03-04T13:24:08.396Z,99040.77
2019-03-04T13:28:14.109Z,99037.59
2019-03-04T13:32:19.991Z,99037.22
2019-03-04T13:36:25.918Z,99035.30
2019-03-04T13:40:31.785Z,99040.94
2019-03-04T13:44:57.725Z,99061.17
2019-03-04T13:49:03.883Z,99066.81
2019-03-04T13:53:10.068Z,99067.77
2019-03-04T13:57:16.141Z,99076.56
2019-03-04T14:01:21.882Z,99088.25
2019-03-04T14:05:28.414Z,99088.73
2019-03-04T14:09:34.210Z,99088.83
2019-03-04T14:13:40.407Z,99118.33
2019-03-04T14:17:46.348Z,99115.92
2019-03-04T14:21:53.092Z,99126.25
2019-03-04T14:25:59.178Z,99129.40
2019-03-04T14:30:05.318Z,99143.28
2019-03-04T14:34:11.161Z,99146.05
2019-03-04T14:38:16.918Z,99164.45
2019-03-04T14:42:22.810Z,99186.77
2019-03-04T14:46:28.711Z,99183.72
2019-03-04T14:50:34.502Z,99192.95
2019-03-04T14:54:40.277Z,99191.13
2019-03-04T14:58:46.025Z,99208.51
2019-03-04T15:02:51.814Z,99214.83
2019-03-04T15:06:57.501Z,99234.25
2019-03-04T15:11:03.285Z,99246.41
2019-03-04T15:15:09.574Z,99239.52
2019-03-04T15:19:15.383Z,99255.72
2019-03-04T15:23:21.588Z,99260.63
2019-03-04T15:27:27.709Z,99274.84
2019-03-04T15:31:34.122Z,99276.28
2019-03-04T15:35:40.196Z,99291.61
2019-03-04T15:39:46.031Z,99299.54
2019-03-04T15:43:52.051Z,99308.31
2019-03-04T15:47:58.572Z,99311.58
2019-03-04T15:52:04.298Z,99341.20
2019-03-04T15:56:10.173Z,99340.54
2019-03-04T16:00:16.557Z,99352.47
2019-03-04T16:04:26.752Z,99345.50
2019-03-04T16:08:32.775Z,99361.92
2019-03-04T16:12:38.609Z,99360.20
2019-03-04T16:16:44.407Z,99363.61
2019-03-04T16:20:50.263Z,99369.27
2019-03-04T16:24:57.034Z,99377.14
2019-03-04T16:29:02.885Z,99379.16
2019-03-04T16:33:08.841Z,99377.50
2019-03-04T16:37:14.688Z,99389.78
2019-03-04T16:41:20.680Z,99400.45
2019-03-04T16:45:26.735Z,99406.02
2019-03-04T16:49:33.233Z,99413.26
2019-03-04T16:53:39.066Z,99409.50
2019-03-04T16:57:45.008Z,99422.42
2019-03-04T17:01:50.915Z,99424.16
2019-03-04T17:05:56.669Z,99438.77
2019-03-04T17:10:02.454Z,99441.22
2019-03-04T17:14:08.324Z,99447.50
2019-03-04T17:18:14.232Z,99450.47
2019-03-04T17:22:20.571Z,99458.08
2019-03-04T17:26:26.372Z,99461.39
2019-03-04T17:30:32.211Z,99471.56
2019-03-04T17:34:39.153Z,99477.98
2019-03-04T17:38:45.796Z,99489.19
2019-03-04T17:42:52.471Z,99499.97
2019-03-04T17:46:58.451Z,99508.41
2019-03-04T17:51:06.205Z,99512.13
2019-03-04T17:55:13.369Z,99518.25
2019-03-04T17:59:19.308Z,99531.13
2019-03-04T18:03:25.413Z,99525.20
2019-03-04T18:07:31.109Z,99542.42
2019-03-04T18:11:37.085Z,99545.08
2019-03-04T18:15:42.987Z,99540.84
2019-03-04T18:19:48.714Z,99547.80
2019-03-04T18:23:54.645Z,99555.61
2019-03-04T18:28:06.874Z,99556.77
2019-03-04T18:33:27.965Z,99560.47
2019-03-04T18:38:22.326Z,99565.63
2019-03-04T18:43:11.638Z,99566.99
2019-03-04T18:48:10.618Z,99567.30
2019-03-04T18:52:16.366Z,99563.06
2019-03-04T18:56:22.931Z,99569.89
2019-03-04T19:00:28.891Z,99563.40
2019-03-04T19:04:34.648Z,99573.81
2019-03-04T19:08:40.384Z,99570.91
2019-03-04T19:12:46.167Z,99574.16
2019-03-04T19:16:51.942Z,99574.37
2019-03-04T19:20:59.040Z,99577.97
2019-03-04T19:25:04.978Z,99580.59
2019-03-04T19:29:10.903Z,99580.81
2019-03-04T19:33:16.794Z,99580.89
2019-03-04T19:37:22.672Z,99582.06
2019-03-04T19:41:28.515Z,99588.78
2019-03-04T19:45:34.323Z,99587.91
2019-03-04T19:49:40.097Z,99584.78
2019-03-04T19:53:46.017Z,99583.61
2019-03-04T19:57:51.724Z,99584.28
2019-03-04T20:01:57.625Z,99579.89
2019-03-04T20:06:05.874Z,99585.11
2019-03-04T20:10:12.533Z,99582.66
2019-03-04T20:14:18.847Z,99588.98
2019-03-04T20:18:24.658Z,99589.22
2019-03-04T20:22:30.777Z,99592.20
2019-03-04T20:26:37.061Z,99603.01
2019-03-04T20:30:47.389Z,99606.70
2019-03-04T20:35:00.376Z,99606.30
2019-03-04T20:39:10.506Z,99600.81
2019-03-04T20:43:16.618Z,99604.56
2019-03-04T20:47:22.447Z,99618.61
2019-03-04T20:51:32.852Z,99623.98
2019-03-04T20:55:38.422Z,99640.27
2019-03-04T20:59:44.302Z,99674.14
2019-03-04T21:03:50.217Z,99708.89
2019-03-04T21:08:32.695Z,99690.71
2019-03-04T21:12:38.612Z,99674.36
2019-03-04T21:22:09.039Z,99682.02
2019-03-04T21:26:39.141Z,99682.42
2019-03-04T21:31:47.884Z,99693.77
2019-03-04T21:36:49.033Z,99695.59
2019-03-04T21:41:32.993Z,99701.80
2019-03-04T21:46:31.107Z,99711.70
2019-03-04T21:51:20.125Z,99725.38
2019-03-04T21:55:38.586Z,99719.45
2019-03-04T21:59:43.983Z,99729.80
2019-03-04T22:03:50.182Z,99721.73
2019-03-04T22:07:55.649Z,99730.06
2019-03-04T22:12:01.207Z,99726.83
2019-03-04T22:16:06.795Z,99730.80
2019-03-04T22:20:12.525Z,99739.98
2019-03-04T22:24:18.081Z,99751.44
2019-03-04T22:28:23.876Z,99746.69
2019-03-04T22:32:29.345Z,99753.06
2019-03-04T22:37:11.150Z,99759.58
2019-03-04T22:41:16.656Z,99761.78
2019-03-04T22:45:22.119Z,99775.33
2019-03-04T22:49:27.586Z,99772.78
2019-03-04T22:53:32.946Z,99765.59
2019-03-04T22:57:38.660Z,99780.60
2019-03-04T23:02:00.806Z,99783.14
2019-03-04T23:06:06.695Z,99784.55
2019-03-04T23:10:29.174Z,99784.92
2019-03-04T23:14:34.816Z,99786.74
2019-03-04T23:18:40.238Z,99807.05
2019-03-04T23:22:46.191Z,99797.98
2019-03-04T23:26:51.606Z,99796.95
2019-03-04T23:30:59.801Z,99794.22
2019-03-04T23:35:04.399Z,99791.80
2019-03-04T23:39:10.247Z,99789.32
2019-03-04T23:43:15.950Z,99788.63
2019-03-04T23:47:21.391Z,99790.59
2019-03-04T23:51:26.843Z,99797.30
2019-03-04T23:55:32.265Z,99806.25
2019-03-04T23:59:37.733Z,99793.14
